createdAt,value
2024-02-10T10:33:12.818Z,1.75
2024-02-10T10:34:12.243Z,1.75
2024-02-10T10:35:11.732Z,1.5
2024-02-10T10:36:11.663Z,1.75
2024-02-10T10:37:12.215Z,1.5
2024-02-10T10:38:13.437Z,1.5
2024-02-10T10:39:12.369Z,1.5
2024-02-10T10:40:12.331Z,1
2024-02-10T10:41:11.814Z,0.75
2024-02-10T10:42:12.238Z,0.75
2024-02-10T10:43:14.776Z,1
2024-02-10T10:44:12.261Z,1
2024-02-10T10:45:11.652Z,1.5
2024-02-10T10:46:13.479Z,1.5
2024-02-10T10:47:11.717Z,1
2024-02-10T10:48:12.318Z,0.75
2024-02-10T10:49:16.348Z,1.25
2024-02-10T10:50:13.336Z,0.75
2024-02-10T10:51:15.175Z,0.75
2024-02-10T10:52:13.221Z,1
2024-02-10T10:53:14.102Z,1.5
2024-02-10T10:54:18.612Z,1.25
2024-02-10T10:55:14.846Z,1.25
2024-02-10T10:56:13.008Z,1.5
2024-02-10T10:57:12.695Z,1.25
2024-02-10T10:58:14.638Z,1.5
2024-02-10T10:59:12.209Z,1.5
2024-02-10T11:00:12.532Z,1.5
2024-02-10T11:01:16.488Z,1.5
2024-02-10T11:03:12.630Z,1.5
2024-02-10T11:04:12.352Z,1.5
2024-02-10T11:05:12.227Z,1.5
2024-02-10T11:06:12.371Z,1.5
2024-02-10T11:07:14.843Z,1.25
2024-02-10T11:08:12.363Z,1.5
2024-02-10T11:09:13.173Z,1.25
2024-02-10T11:10:14.432Z,1.25
2024-02-10T11:11:15.296Z,1.25
2024-02-10T11:12:12.759Z,1.25
2024-02-10T11:13:13.539Z,1.5
2024-02-10T11:14:12.182Z,1.5
2024-02-10T11:15:12.991Z,1.25
2024-02-10T11:16:12.473Z,1.25
2024-02-10T11:17:12.673Z,1.25
2024-02-10T11:18:15.373Z,1.25
2024-02-10T11:19:12.906Z,1.25
2024-02-10T11:20:12.649Z,1.25
2024-02-10T11:21:12.425Z,1.25
2024-02-10T11:22:12.361Z,1.25
2024-02-10T11:23:12.368Z,1.25
2024-02-10T11:24:12.608Z,1.25
2024-02-10T11:25:16.632Z,1.25
2024-02-10T11:26:14.783Z,1.25
2024-02-10T11:27:20.058Z,1.25
2024-02-10T11:28:12.760Z,1.25
2024-02-10T11:29:12.478Z,1.25
2024-02-10T11:30:13.139Z,1.25
2024-02-10T11:31:12.774Z,1.5
2024-02-10T11:32:14.084Z,1.25
2024-02-10T11:33:12.835Z,1.25
2024-02-10T11:34:13.950Z,1
2024-02-10T11:35:12.086Z,1
2024-02-10T11:36:12.568Z,1.25
2024-02-10T11:37:11.995Z,1
2024-02-10T11:38:12.036Z,1.25
2024-02-10T11:39:12.065Z,1.25
2024-02-10T11:40:12.140Z,1
2024-02-10T11:41:12.139Z,1.25
2024-02-10T11:42:21.184Z,1
2024-02-10T11:43:12.335Z,1.25
2024-02-10T11:44:12.175Z,1.25
2024-02-10T11:45:13.211Z,1.25
2024-02-10T11:46:12.248Z,1.25
2024-02-10T11:47:12.240Z,1.25
2024-02-10T11:48:12.235Z,1
2024-02-10T11:49:12.263Z,1
2024-02-10T11:50:12.368Z,1
2024-02-10T11:51:14.109Z,1.25
2024-02-10T11:52:13.051Z,1.25
2024-02-10T11:53:12.059Z,1
2024-02-10T11:54:12.050Z,1.25
2024-02-10T11:55:11.958Z,1
2024-02-10T11:56:12.041Z,1
2024-02-10T11:57:12.940Z,1.25
2024-02-10T11:58:12.706Z,1
2024-02-10T11:59:12.894Z,1
2024-02-10T12:00:13.764Z,1
2024-02-10T12:01:12.509Z,1
2024-02-10T12:02:13.512Z,1
2024-02-10T12:03:11.581Z,1
2024-02-10T12:04:11.573Z,0.75
2024-02-10T12:05:11.618Z,1.25
2024-02-10T12:06:12.609Z,1.25
2024-02-10T12:07:11.437Z,1.25
2024-02-10T12:08:13.404Z,1.25
2024-02-10T12:09:13.393Z,1.25
2024-02-10T12:10:12.485Z,1.25
2024-02-10T12:11:13.301Z,1.25
2024-02-10T12:12:12.345Z,1.25
2024-02-10T12:13:12.162Z,1.25
2024-02-10T12:14:12.129Z,1.25
2024-02-10T12:15:12.194Z,1.25
2024-02-10T12:16:12.131Z,1.25
2024-02-10T12:17:13.198Z,1.25
2024-02-10T12:18:12.811Z,1
2024-02-10T12:19:11.955Z,1
2024-02-10T12:20:12.892Z,1
2024-02-10T12:21:17.913Z,1
2024-02-10T12:22:12.801Z,1
2024-02-10T12:23:11.776Z,1
2024-02-10T12:24:11.873Z,1
2024-02-10T12:25:12.687Z,1
2024-02-10T12:26:11.594Z,1
2024-02-10T12:27:12.816Z,1
2024-02-10T12:28:11.529Z,1
2024-02-10T12:29:13.677Z,1
2024-02-10T12:30:11.919Z,1.25
2024-02-10T12:31:12.432Z,1.25
2024-02-10T12:32:12.704Z,1
2024-02-10T12:33:13.452Z,1.25
2024-02-10T12:34:12.547Z,1
2024-02-10T12:35:14.300Z,1
2024-02-10T12:36:12.273Z,1
2024-02-10T12:37:12.595Z,1
2024-02-10T12:38:12.264Z,1
2024-02-10T12:39:12.355Z,1
2024-02-10T12:40:12.395Z,1
2024-02-10T12:41:13.992Z,1
2024-02-10T12:42:12.392Z,1
2024-02-10T12:43:12.528Z,1
2024-02-10T12:44:11.591Z,1
2024-02-10T12:45:13.467Z,1
2024-02-10T12:46:11.475Z,1
2024-02-10T12:47:13.843Z,1
2024-02-10T12:48:12.484Z,1
2024-02-10T12:49:14.562Z,1
2024-02-10T12:50:12.207Z,1
2024-02-10T12:51:12.280Z,1
2024-02-10T12:52:12.214Z,0.75
2024-02-10T12:53:12.137Z,1
2024-02-10T12:54:13.097Z,1
2024-02-10T12:55:12.078Z,1
2024-02-10T12:56:17.065Z,1
2024-02-10T12:57:12.969Z,1
2024-02-10T12:58:11.972Z,1
2024-02-10T12:59:12.432Z,1
2024-02-10T13:00:15.945Z,1
2024-02-10T13:01:11.928Z,1
2024-02-10T13:02:11.959Z,1
2024-02-10T13:03:11.872Z,1
2024-02-10T13:04:11.860Z,0.75
2024-02-10T13:05:14.769Z,1
2024-02-10T13:06:11.667Z,1
2024-02-10T13:07:11.590Z,1
2024-02-10T13:08:11.581Z,1
2024-02-10T13:09:12.511Z,1
2024-02-10T13:10:11.493Z,1
2024-02-10T13:11:12.211Z,1
2024-02-10T13:12:13.103Z,1
2024-02-10T13:13:15.281Z,1
2024-02-10T13:14:12.935Z,1
2024-02-10T13:15:12.881Z,1
2024-02-10T13:16:12.542Z,1
2024-02-10T13:17:13.069Z,1
2024-02-10T13:18:13.814Z,1.25
2024-02-10T13:19:12.880Z,1.25
2024-02-10T13:20:12.866Z,1.25
2024-02-10T13:21:14.624Z,1.25
2024-02-10T13:22:12.932Z,1
2024-02-10T13:23:12.903Z,1
2024-02-10T13:24:12.775Z,1
2024-02-10T13:25:13.733Z,1
2024-02-10T13:26:12.335Z,1
2024-02-10T13:27:11.715Z,1
2024-02-10T13:28:11.627Z,1
2024-02-10T13:29:11.780Z,1
2024-02-10T13:30:11.741Z,1
2024-02-10T13:31:12.397Z,1
2024-02-10T13:32:11.649Z,1
2024-02-10T13:33:11.768Z,1
2024-02-10T13:34:24.994Z,1
2024-02-10T13:35:19.791Z,1
2024-02-10T13:36:11.479Z,1
2024-02-10T13:37:11.482Z,1
2024-02-10T13:38:11.471Z,1
2024-02-10T13:39:13.522Z,0.75
2024-02-10T13:40:11.728Z,1
2024-02-10T13:41:11.584Z,1
2024-02-10T13:42:11.511Z,1
2024-02-10T13:43:11.492Z,1
2024-02-10T13:44:12.529Z,1
2024-02-10T13:45:13.454Z,1
2024-02-10T13:46:12.417Z,1
2024-02-10T13:47:13.391Z,1
2024-02-10T13:48:12.467Z,1
2024-02-10T13:49:12.417Z,1
2024-02-10T13:50:12.394Z,1
2024-02-10T13:51:12.470Z,1
2024-02-10T13:52:12.304Z,1
2024-02-10T13:53:12.300Z,1
2024-02-10T13:54:12.326Z,1
2024-02-10T13:55:13.208Z,1
2024-02-10T13:56:12.290Z,0.75
2024-02-10T13:57:13.335Z,0.75
2024-02-10T13:58:13.068Z,0.75
2024-02-10T13:59:12.192Z,0.75
2024-02-10T14:00:12.391Z,0.75
2024-02-10T14:01:13.181Z,0.75
2024-02-10T14:02:12.124Z,0.75
2024-02-10T14:03:13.511Z,0.75
2024-02-10T14:04:13.104Z,0.75
2024-02-10T14:05:12.060Z,0.75
2024-02-10T14:06:12.001Z,0.75
2024-02-10T14:07:11.851Z,0.75
2024-02-10T14:08:11.883Z,0.5
2024-02-10T14:09:11.903Z,0.5
2024-02-10T14:10:14.933Z,0.5
2024-02-10T14:11:12.974Z,0.5
2024-02-10T14:12:15.053Z,0.5
2024-02-10T14:13:11.937Z,0.5
2024-02-10T14:14:11.908Z,0.25
2024-02-10T14:15:12.006Z,0.25
2024-02-10T14:16:12.866Z,0.25
2024-02-10T14:17:11.825Z,0.25
2024-02-10T14:18:13.280Z,0.5
2024-02-10T14:19:16.024Z,0.25
2024-02-10T14:20:11.656Z,0.25
2024-02-10T14:21:11.725Z,0.25
2024-02-10T14:22:11.717Z,0.25
2024-02-10T14:23:11.695Z,0.25
2024-02-10T14:24:13.742Z,0.25
2024-02-10T14:25:11.853Z,0.25
2024-02-10T14:26:11.720Z,0.25
2024-02-10T14:27:12.715Z,0.25
2024-02-10T14:28:12.846Z,0.25
2024-02-10T14:29:11.546Z,0.25
2024-02-10T14:30:13.986Z,0.25
2024-02-10T14:31:11.483Z,0.25
2024-02-10T14:32:12.739Z,0
2024-02-10T14:33:11.599Z,0
2024-02-10T14:34:11.486Z,0
2024-02-10T14:35:12.727Z,0
2024-02-10T14:36:11.585Z,0
2024-02-10T14:37:11.538Z,0
2024-02-10T14:38:11.465Z,0
2024-02-10T14:39:12.498Z,0
2024-02-10T14:40:11.470Z,0
2024-02-10T14:41:12.589Z,0
2024-02-10T14:42:12.399Z,0
2024-02-10T14:43:12.342Z,0
2024-02-10T14:44:12.441Z,0
2024-02-10T14:45:15.243Z,0
2024-02-10T14:46:12.254Z,0
2024-02-10T14:47:14.491Z,0
2024-02-10T14:48:12.431Z,0
2024-02-10T14:49:12.273Z,0
2024-02-10T14:50:12.486Z,0
2024-02-10T14:51:12.037Z,0
2024-02-10T14:52:12.090Z,0
2024-02-10T14:53:12.999Z,0
2024-02-10T14:54:12.260Z,0
2024-02-10T14:55:12.917Z,0
2024-02-10T14:56:11.926Z,0
2024-02-10T14:57:11.952Z,0
2024-02-10T14:58:11.816Z,0
2024-02-10T14:59:11.863Z,0
2024-02-10T15:00:12.728Z,0
2024-02-10T15:01:12.786Z,0
2024-02-10T15:02:11.799Z,0
2024-02-10T15:03:11.700Z,0
2024-02-10T15:04:11.633Z,0
2024-02-10T15:05:12.817Z,0
2024-02-10T15:06:11.630Z,0
2024-02-10T15:07:18.586Z,0
2024-02-10T15:08:11.556Z,0
2024-02-10T15:09:12.631Z,0
2024-02-10T15:10:11.553Z,0
2024-02-10T15:11:11.590Z,0
2024-02-10T15:12:11.583Z,0
2024-02-10T15:13:11.697Z,0
2024-02-10T15:14:12.748Z,0
2024-02-10T15:15:13.621Z,0
2024-02-10T15:16:12.632Z,0
2024-02-10T15:17:13.790Z,0
2024-02-10T15:18:13.432Z,0
2024-02-10T15:19:12.531Z,0
2024-02-10T15:20:14.728Z,0
2024-02-10T15:21:13.098Z,0
2024-02-10T15:22:13.103Z,0
2024-02-10T15:23:12.449Z,0
2024-02-10T15:24:13.257Z,0
2024-02-10T15:25:14.957Z,0
2024-02-10T15:26:12.625Z,0
2024-02-10T15:27:12.563Z,0
2024-02-10T15:28:12.140Z,0
2024-02-10T15:29:11.874Z,0
2024-02-10T15:30:12.072Z,0
2024-02-10T15:31:11.824Z,0
2024-02-10T15:32:11.888Z,0
2024-02-10T15:33:11.712Z,0
2024-02-10T15:34:11.609Z,0
2024-02-10T15:35:12.816Z,0
2024-02-10T15:36:12.497Z,0
2024-02-10T15:37:12.501Z,0
2024-02-10T15:38:12.438Z,0
2024-02-10T15:39:13.518Z,0
2024-02-10T15:40:13.341Z,0
2024-02-10T15:41:12.328Z,0
2024-02-10T15:42:13.207Z,0
2024-02-10T15:43:12.233Z,0
2024-02-10T15:44:12.259Z,0
2024-02-10T15:45:12.319Z,0
2024-02-10T15:46:12.501Z,0
2024-02-10T15:47:12.256Z,0
2024-02-10T15:48:12.428Z,0
2024-02-10T15:49:13.251Z,0
2024-02-10T15:50:13.193Z,0
2024-02-10T15:51:12.061Z,0
2024-02-10T15:52:12.144Z,0
2024-02-10T15:53:13.047Z,0
2024-02-10T15:54:12.328Z,0
2024-02-10T15:55:12.082Z,0
2024-02-10T15:56:11.956Z,0
2024-02-10T15:57:11.959Z,0
2024-02-10T15:58:13.808Z,0
2024-02-10T15:59:11.889Z,0
2024-02-10T16:00:13.352Z,0
2024-02-10T16:01:12.964Z,0
2024-02-10T16:02:12.105Z,0
2024-02-10T16:03:12.027Z,0
2024-02-10T16:04:12.020Z,0
2024-02-10T16:05:11.916Z,0
2024-02-10T16:06:11.739Z,0
2024-02-10T16:07:11.705Z,0
2024-02-10T16:08:11.693Z,0
2024-02-10T16:09:13.743Z,0
2024-02-10T16:10:12.642Z,0
2024-02-10T16:11:11.705Z,0
2024-02-10T16:12:13.771Z,0
2024-02-10T16:13:12.631Z,0
2024-02-10T16:14:12.901Z,0
2024-02-10T16:15:13.639Z,0
2024-02-10T16:16:43.807Z,0
2024-02-10T16:17:19.896Z,0
2024-02-10T16:18:12.649Z,0
2024-02-10T16:19:16.641Z,0
2024-02-10T16:20:13.617Z,0
2024-02-10T16:21:12.493Z,0
2024-02-10T16:22:11.700Z,0
2024-02-10T16:23:12.672Z,0
2024-02-10T16:24:13.588Z,0
2024-02-10T16:25:14.482Z,0
2024-02-10T16:26:13.472Z,0
2024-02-10T16:27:12.543Z,0
2024-02-10T16:28:12.552Z,0
2024-02-10T16:29:12.326Z,0
2024-02-10T16:30:13.289Z,0
2024-02-10T16:31:13.327Z,0
2024-02-10T16:32:12.322Z,0
2024-02-10T16:33:13.445Z,0
2024-02-10T16:34:12.289Z,0
2024-02-10T16:35:12.498Z,0
2024-02-10T16:36:12.420Z,0
2024-02-10T16:37:12.539Z,0
2024-02-10T16:38:11.661Z,0
2024-02-10T16:39:11.723Z,0
2024-02-10T16:40:11.925Z,0
2024-02-10T16:41:12.812Z,0
2024-02-10T16:42:11.766Z,0
2024-02-10T16:43:11.711Z,0
2024-02-10T16:44:11.724Z,0
2024-02-10T16:45:12.761Z,0
2024-02-10T16:46:11.787Z,0
2024-02-10T16:47:11.791Z,0
2024-02-10T16:48:11.840Z,0
2024-02-10T16:49:12.770Z,0
2024-02-10T16:50:11.885Z,0
2024-02-10T16:51:12.849Z,0
2024-02-10T16:52:11.826Z,0
2024-02-10T16:53:11.793Z,0
2024-02-10T16:54:13.233Z,0
2024-02-10T16:55:13.529Z,0
2024-02-10T16:56:13.679Z,0
2024-02-10T16:57:14.266Z,0
2024-02-10T16:58:12.148Z,0
2024-02-10T16:59:12.699Z,0
2024-02-10T17:00:12.685Z,0
2024-02-10T17:01:12.419Z,0
2024-02-10T17:02:12.536Z,0
2024-02-10T17:03:12.458Z,0
2024-02-10T17:04:11.744Z,0
2024-02-10T17:05:24.280Z,0
2024-02-10T17:06:12.271Z,0
2024-02-10T17:07:12.014Z,0
2024-02-10T17:08:11.911Z,0
2024-02-10T17:09:12.143Z,0
2024-02-10T17:10:13.118Z,0
2024-02-10T17:11:12.157Z,0
2024-02-10T17:12:12.170Z,0
2024-02-10T17:13:13.145Z,0
2024-02-10T17:14:12.390Z,0
2024-02-10T17:15:13.135Z,0
2024-02-10T17:16:12.107Z,0
2024-02-10T17:17:12.472Z,0
2024-02-10T17:18:12.421Z,0
2024-02-10T17:19:13.551Z,0
2024-02-10T17:20:13.198Z,0
2024-02-10T17:21:13.204Z,0
2024-02-10T17:22:18.144Z,0
2024-02-10T17:23:12.145Z,0
2024-02-10T17:24:12.356Z,0
2024-02-10T17:25:12.811Z,0
2024-02-10T17:26:12.544Z,0
2024-02-10T17:27:11.428Z,0
2024-02-10T17:28:12.503Z,0
2024-02-10T17:29:13.010Z,0
2024-02-10T17:30:12.825Z,0
2024-02-10T17:31:12.594Z,0
2024-02-10T17:32:11.587Z,0
2024-02-10T17:33:11.607Z,0
2024-02-10T17:34:12.711Z,0
2024-02-10T17:35:12.833Z,0
2024-02-10T17:36:11.778Z,0
2024-02-10T17:37:13.828Z,0
2024-02-10T17:38:11.786Z,0
2024-02-10T17:39:11.793Z,0
2024-02-10T17:40:12.779Z,0
2024-02-10T17:41:12.447Z,0
2024-02-10T17:42:11.844Z,0
2024-02-10T17:43:12.697Z,0
2024-02-10T17:44:12.531Z,0
2024-02-10T17:45:13.777Z,0
2024-02-10T17:46:11.793Z,0
2024-02-10T17:47:11.736Z,0
2024-02-10T17:48:13.039Z,0
2024-02-10T17:49:12.587Z,0
2024-02-10T17:50:13.716Z,0
2024-02-10T17:51:11.660Z,0
2024-02-10T17:52:11.783Z,0
2024-02-10T17:53:12.505Z,0
2024-02-10T17:54:12.448Z,0
2024-02-10T17:55:12.458Z,0
2024-02-10T17:56:12.892Z,0
2024-02-10T17:57:12.609Z,0
2024-02-10T17:58:11.602Z,0
2024-02-10T17:59:11.876Z,0
2024-02-10T18:00:11.824Z,0
2024-02-10T18:01:11.948Z,0
2024-02-10T18:02:11.770Z,0
2024-02-10T18:03:13.108Z,0
2024-02-10T18:04:12.303Z,0
2024-02-10T18:05:11.968Z,0
2024-02-10T18:06:13.239Z,0
2024-02-10T18:07:12.243Z,0
2024-02-10T18:08:12.309Z,0
2024-02-10T18:09:13.828Z,0
2024-02-10T18:10:12.122Z,0
2024-02-10T18:11:12.932Z,0
2024-02-10T18:12:12.385Z,0
2024-02-10T18:13:12.715Z,0
2024-02-10T18:14:12.655Z,0
2024-02-10T18:15:11.929Z,0
2024-02-10T18:16:11.888Z,0
2024-02-10T18:17:12.016Z,0
2024-02-10T18:18:12.003Z,0
2024-02-10T18:19:13.881Z,0
2024-02-10T18:20:11.927Z,0
2024-02-10T18:21:12.044Z,0
2024-02-10T18:22:12.060Z,0
2024-02-10T18:23:12.240Z,0
2024-02-10T18:24:12.175Z,0
2024-02-10T18:25:13.410Z,0
2024-02-10T18:26:12.229Z,0
2024-02-10T18:27:13.399Z,0
2024-02-10T18:28:13.201Z,0
2024-02-10T18:29:12.239Z,0
2024-02-10T18:30:13.216Z,0
2024-02-10T18:31:12.210Z,0
2024-02-10T18:32:12.201Z,0
2024-02-10T18:33:12.303Z,0
2024-02-10T18:34:12.237Z,0
2024-02-10T18:35:14.338Z,0
2024-02-10T18:36:12.895Z,0
2024-02-10T18:37:12.766Z,0
2024-02-10T18:38:13.875Z,0
2024-02-10T18:39:14.094Z,0
2024-02-10T18:40:12.557Z,0
2024-02-10T18:41:20.676Z,0
2024-02-10T18:42:12.651Z,0
2024-02-10T18:43:14.111Z,0
2024-02-10T18:44:12.933Z,0
2024-02-10T18:45:13.561Z,0
2024-02-10T18:46:13.788Z,0
2024-02-10T18:47:12.635Z,0
2024-02-10T18:48:13.051Z,0
2024-02-10T18:49:13.690Z,0
2024-02-10T18:50:12.608Z,0
2024-02-10T18:51:13.676Z,0
2024-02-10T18:52:12.661Z,0
2024-02-10T18:53:12.650Z,0
2024-02-10T18:54:12.479Z,0
2024-02-10T18:55:13.444Z,0
2024-02-10T18:56:12.395Z,0
2024-02-10T18:57:12.180Z,0
2024-02-10T18:58:12.257Z,0
2024-02-10T18:59:14.362Z,0
2024-02-10T19:00:12.597Z,0
2024-02-10T19:01:12.534Z,0
2024-02-10T19:02:12.646Z,0
2024-02-10T19:03:13.519Z,0
2024-02-10T19:04:12.687Z,0
2024-02-10T19:05:12.865Z,0
2024-02-10T19:06:11.862Z,0
2024-02-10T19:07:11.760Z,0
2024-02-10T19:08:11.788Z,0
2024-02-10T19:09:11.545Z,0
2024-02-10T19:10:11.717Z,0
2024-02-10T19:11:12.954Z,0
2024-02-10T19:12:11.733Z,0
2024-02-10T19:13:12.658Z,0
2024-02-10T19:14:12.666Z,0
2024-02-10T19:15:13.428Z,0
2024-02-10T19:16:12.772Z,0
2024-02-10T19:17:12.508Z,0
2024-02-10T19:18:12.004Z,0
2024-02-10T19:19:11.659Z,0
2024-02-10T19:20:11.924Z,0
2024-02-10T19:21:11.918Z,0
2024-02-10T19:22:12.004Z,0
2024-02-10T19:23:12.199Z,0
2024-02-10T19:24:11.831Z,0
2024-02-10T19:25:12.891Z,0
2024-02-10T19:26:12.127Z,0
2024-02-10T19:27:16.876Z,0
2024-02-10T19:28:12.899Z,0
2024-02-10T19:29:13.042Z,0
2024-02-10T19:30:12.834Z,0
2024-02-10T19:31:11.890Z,0
2024-02-10T19:32:12.261Z,0
2024-02-10T19:33:13.177Z,0
2024-02-10T19:34:12.347Z,0
2024-02-10T19:35:14.621Z,0
2024-02-10T19:36:12.687Z,0
2024-02-10T19:37:12.275Z,0
2024-02-10T19:38:20.122Z,0
2024-02-10T19:39:12.704Z,0
2024-02-10T19:40:12.797Z,0
2024-02-10T19:41:11.792Z,0
2024-02-10T19:42:11.933Z,0
2024-02-10T19:43:15.140Z,0
2024-02-10T19:44:11.817Z,0
2024-02-10T19:45:12.035Z,0
2024-02-10T19:46:11.768Z,0
2024-02-10T19:47:12.861Z,0
2024-02-10T19:48:12.888Z,0
2024-02-10T19:49:11.889Z,0
2024-02-10T19:50:12.025Z,0
2024-02-10T19:51:14.542Z,0
2024-02-10T19:52:16.950Z,0
2024-02-10T19:53:12.045Z,0
2024-02-10T19:54:12.071Z,0
2024-02-10T19:55:13.157Z,0
2024-02-10T19:56:12.203Z,0
2024-02-10T19:57:11.984Z,0
2024-02-10T19:58:12.191Z,0
2024-02-10T19:59:12.271Z,0
2024-02-10T20:00:13.221Z,0
2024-02-10T20:01:13.243Z,0
2024-02-10T20:02:12.064Z,0
2024-02-10T20:03:12.436Z,0
2024-02-10T20:04:12.182Z,0
2024-02-10T20:05:12.232Z,0
2024-02-10T20:06:12.081Z,0
2024-02-10T20:07:12.996Z,0
2024-02-10T20:08:13.084Z,0
2024-02-10T20:09:14.330Z,0
2024-02-10T20:10:13.360Z,0
2024-02-10T20:11:12.539Z,0
2024-02-10T20:12:13.228Z,0
2024-02-10T20:13:13.335Z,0
2024-02-10T20:14:12.474Z,0
2024-02-10T20:15:12.364Z,0
2024-02-10T20:16:12.488Z,0
2024-02-10T20:17:14.520Z,0
2024-02-10T20:18:13.638Z,0
2024-02-10T20:19:12.592Z,0
2024-02-10T20:20:13.766Z,0
2024-02-10T20:21:11.582Z,0
2024-02-10T20:22:11.582Z,0
2024-02-10T20:23:11.629Z,0
2024-02-10T20:24:11.643Z,0
2024-02-10T20:25:11.876Z,0
2024-02-10T20:26:11.850Z,0
2024-02-10T20:27:11.718Z,0
2024-02-10T20:28:11.772Z,0
2024-02-10T20:29:11.974Z,0
2024-02-10T20:30:11.895Z,0
2024-02-10T20:31:11.982Z,0
2024-02-10T20:32:11.847Z,0
2024-02-10T20:33:12.546Z,0
2024-02-10T20:34:11.783Z,0
2024-02-10T20:35:13.715Z,0
2024-02-10T20:36:16.826Z,0
2024-02-10T20:37:12.151Z,0
2024-02-10T20:38:12.050Z,0
2024-02-10T20:39:12.742Z,0
2024-02-10T20:40:11.693Z,0
2024-02-10T20:41:12.731Z,0
2024-02-10T20:42:11.767Z,0
2024-02-10T20:43:12.923Z,0
2024-02-10T20:44:11.894Z,0
2024-02-10T20:45:11.866Z,0
2024-02-10T20:46:11.860Z,0
2024-02-10T20:47:11.941Z,0
2024-02-10T20:48:13.027Z,0
2024-02-10T20:49:12.172Z,0
2024-02-10T20:50:13.339Z,0
2024-02-10T20:51:13.993Z,0
2024-02-10T20:52:13.546Z,0
2024-02-10T20:53:12.081Z,0
2024-02-10T20:54:12.555Z,0
2024-02-10T20:55:12.317Z,0
2024-02-10T20:56:12.146Z,0
2024-02-10T20:57:12.405Z,0
2024-02-10T20:58:12.632Z,0
2024-02-10T20:59:13.185Z,0
2024-02-10T21:00:13.240Z,0
2024-02-10T21:01:12.219Z,0
2024-02-10T21:02:12.209Z,0
2024-02-10T21:03:11.993Z,0
2024-02-10T21:04:12.140Z,0
2024-02-10T21:05:13.485Z,0
2024-02-10T21:06:12.086Z,0
2024-02-10T21:07:13.066Z,0
2024-02-10T21:08:12.093Z,0
2024-02-10T21:09:13.103Z,0
2024-02-10T21:10:12.262Z,0
2024-02-10T21:11:12.260Z,0
2024-02-10T21:12:12.160Z,0
2024-02-10T21:13:12.272Z,0
2024-02-10T21:14:13.403Z,0
2024-02-10T21:15:13.482Z,0
2024-02-10T21:16:12.474Z,0
2024-02-10T21:17:12.728Z,0
2024-02-10T21:18:12.469Z,0
2024-02-10T21:19:12.394Z,0
2024-02-10T21:20:12.457Z,0
2024-02-10T21:21:12.640Z,0
2024-02-10T21:22:12.599Z,0
2024-02-10T21:23:13.469Z,0
2024-02-10T21:24:12.472Z,0
2024-02-10T21:25:11.599Z,0
2024-02-10T21:26:11.955Z,0
2024-02-10T21:27:12.126Z,0
2024-02-10T21:28:11.502Z,0
2024-02-10T21:29:11.653Z,0
2024-02-10T21:30:11.788Z,0
2024-02-10T21:31:12.625Z,0
2024-02-10T21:32:11.745Z,0
2024-02-10T21:33:11.903Z,0
2024-02-10T21:34:12.048Z,0
2024-02-10T21:35:12.806Z,0
2024-02-10T21:36:11.917Z,0
2024-02-10T21:37:11.943Z,0
2024-02-10T21:38:12.301Z,0
2024-02-10T21:39:14.082Z,0
2024-02-10T21:40:13.190Z,0
2024-02-10T21:41:12.212Z,0
2024-02-10T21:42:12.323Z,0
2024-02-10T21:43:12.241Z,0
2024-02-10T21:44:13.399Z,0
2024-02-10T21:45:12.512Z,0
2024-02-10T21:46:12.179Z,0
2024-02-10T21:47:14.081Z,0
2024-02-10T21:48:13.308Z,0
2024-02-10T21:49:13.257Z,0
2024-02-10T21:50:13.416Z,0
2024-02-10T21:51:11.766Z,0
2024-02-10T21:52:12.626Z,0
2024-02-10T21:53:12.575Z,0
2024-02-10T21:54:12.752Z,0
2024-02-10T21:55:14.543Z,0
2024-02-10T21:56:12.844Z,0
2024-02-10T21:57:12.848Z,0
2024-02-10T21:58:12.672Z,0
2024-02-10T21:59:15.489Z,0
2024-02-10T22:00:13.007Z,0
2024-02-10T22:01:12.942Z,0
2024-02-10T22:02:13.990Z,0
2024-02-10T22:03:14.000Z,0
2024-02-10T22:04:14.186Z,0
2024-02-10T22:05:13.021Z,0
2024-02-10T22:06:13.355Z,0
2024-02-10T22:07:13.172Z,0
2024-02-10T22:08:13.322Z,0
2024-02-10T22:09:13.320Z,0
2024-02-10T22:10:13.723Z,0
2024-02-10T22:11:12.677Z,0
2024-02-10T22:12:11.923Z,0
2024-02-10T22:13:12.940Z,0
2024-02-10T22:14:12.010Z,0
2024-02-10T22:15:12.338Z,0
2024-02-10T22:16:12.081Z,0
2024-02-10T22:17:12.288Z,0
2024-02-10T22:18:15.709Z,0
2024-02-10T22:19:13.490Z,0
2024-02-10T22:20:12.614Z,0
2024-02-10T22:21:11.472Z,0
2024-02-10T22:22:11.584Z,0
2024-02-10T22:23:12.635Z,0
2024-02-10T22:24:11.504Z,0
2024-02-10T22:25:11.879Z,0
2024-02-10T22:26:11.924Z,0
2024-02-10T22:27:13.776Z,0
2024-02-10T22:28:11.914Z,0
2024-02-10T22:29:13.000Z,0
2024-02-10T22:30:12.129Z,0
2024-02-10T22:31:12.098Z,0
2024-02-10T22:32:12.229Z,0
2024-02-10T22:33:12.365Z,0
2024-02-10T22:34:12.370Z,0
2024-02-10T22:35:13.578Z,0
2024-02-10T22:36:11.625Z,0
2024-02-10T22:37:11.579Z,0
2024-02-10T22:38:12.633Z,0
2024-02-10T22:39:11.701Z,0
2024-02-10T22:40:11.904Z,0
2024-02-10T22:41:13.093Z,0
2024-02-10T22:42:12.909Z,0
2024-02-10T22:43:13.719Z,0
2024-02-10T22:44:13.896Z,0
2024-02-10T22:45:13.098Z,0
2024-02-10T22:46:12.441Z,0
2024-02-10T22:47:15.649Z,0
2024-02-10T22:48:14.164Z,0
2024-02-10T22:49:13.952Z,0
2024-02-10T22:50:12.712Z,0
2024-02-10T22:51:15.006Z,0
2024-02-10T22:52:12.285Z,0
2024-02-10T22:53:12.470Z,0
2024-02-10T22:54:13.500Z,0
2024-02-10T22:55:12.730Z,0
2024-02-10T22:56:11.758Z,0
2024-02-10T22:57:11.654Z,0
2024-02-10T22:58:11.656Z,0
2024-02-10T22:59:13.755Z,0
2024-02-10T23:00:13.271Z,0
2024-02-10T23:01:12.149Z,0
2024-02-10T23:02:13.181Z,0
2024-02-10T23:03:12.291Z,0
2024-02-10T23:04:12.428Z,0
2024-02-10T23:05:12.666Z,0
2024-02-10T23:06:12.519Z,0
2024-02-10T23:07:12.543Z,0
2024-02-10T23:08:11.580Z,0
2024-02-10T23:09:11.530Z,0
2024-02-10T23:10:12.682Z,0
2024-02-10T23:11:11.764Z,0
2024-02-10T23:12:11.770Z,0
2024-02-10T23:13:11.704Z,0
2024-02-10T23:14:12.775Z,0
2024-02-10T23:15:12.934Z,0
2024-02-10T23:16:11.959Z,0
2024-02-10T23:17:12.045Z,0
2024-02-10T23:18:12.507Z,0
2024-02-10T23:19:13.017Z,0
2024-02-10T23:20:12.373Z,0
2024-02-10T23:21:12.260Z,0
2024-02-10T23:22:13.224Z,0
2024-02-10T23:23:13.209Z,0
2024-02-10T23:24:13.312Z,0
2024-02-10T23:25:13.453Z,0
2024-02-10T23:26:12.574Z,0
2024-02-10T23:27:11.477Z,0
2024-02-10T23:28:11.615Z,0
2024-02-10T23:29:11.712Z,0
2024-02-10T23:30:12.979Z,0
2024-02-10T23:31:14.030Z,0
2024-02-10T23:32:12.214Z,0
2024-02-10T23:33:12.214Z,0
2024-02-10T23:34:12.797Z,0
2024-02-10T23:35:12.166Z,0
2024-02-10T23:36:12.996Z,0
2024-02-10T23:37:12.152Z,0
2024-02-10T23:38:12.248Z,0
2024-02-10T23:39:14.251Z,0
2024-02-10T23:40:13.352Z,0
2024-02-10T23:41:12.385Z,0
2024-02-10T23:42:12.192Z,0
2024-02-10T23:43:12.437Z,0
2024-02-10T23:44:12.463Z,0
2024-02-10T23:45:12.450Z,0
2024-02-10T23:46:11.537Z,0
2024-02-10T23:47:12.593Z,0
2024-02-10T23:48:11.877Z,0
2024-02-10T23:49:11.481Z,0
2024-02-10T23:50:12.678Z,0
2024-02-10T23:51:11.638Z,0
2024-02-10T23:52:11.646Z,0
2024-02-10T23:53:12.001Z,0
2024-02-10T23:54:12.646Z,0
2024-02-10T23:55:12.872Z,0
2024-02-10T23:56:12.049Z,0
2024-02-10T23:57:12.167Z,0
2024-02-10T23:58:12.946Z,0
2024-02-10T23:59:13.160Z,0
